• pl
  • eng

Awiacja
Komunikaty METAR z lotnisk wojskowych. 02:01 22.01.2017

METAR EPBC 220130Z NIL=

METAR EPCE 220130Z 21006KT 0450 R25/1400N FZFG VV002 M01/M01
Q1031 RMK M012 100 /// =

METAR EPDA 220130Z VRB05KT 2500 BR OVC002 01/01
Q1032 RMK 006 100 8/8 =

METAR EPDE 220130Z AUTO 29002KT 7000 VV007 00/M01 Q1034 RMK 000 095
///=

METAR EPIR 220130Z NIL=

METAR COR EPKS 220100Z VRB02KT 0200 FG VV001 01/00 Q1033 RMK 005 098
/// =

METAR EPLK 220130Z 18002KT 0700 FG BKN002 OVC005 00/00 Q1033 RMK 003
100 8/6=

METAR EPLY 220130Z NIL=

METAR EPMB 220130Z 23008KT 2000 BR OVC003 M00/M01 Q1033 RMK M001 096
8/8=

METAR EPMI 220130Z NIL=

METAR EPMM 220130Z VRB02KT 0600 FZFG OVC002 M00/M00 Q1033 RMK M002
098 8/8=

METAR EPNA 220130Z NIL=

METAR EPOK 220130Z 26004KT 5000 BR OVC003 M00/M00
Q1032 RMK M005 100 8/8 =

METAR EPPR 220130Z NIL=

METAR EPPW 220130Z VRB02KT 0100 FG VV001 01/01 Q1033 RMK 006 100 ///
=

METAR EPRA 220130Z 25006KT 4000 BR OVC006 01/00 Q1034 RMK 006 096
8/8=

METAR EPSN 220130Z 20004KT 1000 BR OVC002 01/01 Q1032 RMK 008 098 8/8
=

METAR EPTM 220130Z NIL=

METAR EPWI 220130Z NIL=
Awiacja.imgw.pl jest pogodowym serwisem informacyjnym
Instytutu Meteorologii i Gospodarki Wodnej Państwowego Instytutu Badawczego.
Copyright IMGW PIB 2009-2011© Wszelkie prawa zastrzeżone.